createdAt,value
2023-04-16T00:01:14.640Z,101490.84
2023-04-16T00:02:36.249Z,101490.84
2023-04-16T00:03:41.243Z,101500.19
2023-04-16T00:06:07.897Z,101502.66
2023-04-16T00:07:36.135Z,101502.66
2023-04-16T00:08:35.777Z,101459.06
2023-04-16T00:11:02.367Z,101423.19
2023-04-16T00:12:36.134Z,101423.19
2023-04-16T00:13:28.799Z,101279.28
2023-04-16T00:15:55.250Z,101507.06
2023-04-16T00:17:36.198Z,101507.06
2023-04-16T00:18:21.748Z,101432.63
2023-04-16T00:20:48.690Z,101487.44
2023-04-16T00:22:36.144Z,101487.44
2023-04-16T00:23:17.310Z,101505.50
2023-04-16T00:25:43.683Z,101459.28
2023-04-16T00:27:36.156Z,101459.28
2023-04-16T00:28:11.091Z,101510.00
2023-04-16T00:30:37.708Z,101461.91
2023-04-16T00:32:36.231Z,101461.91
2023-04-16T00:33:04.753Z,101480.81
2023-04-16T00:35:31.183Z,101509.06
2023-04-16T00:37:36.161Z,101509.06
2023-04-16T00:37:57.480Z,101485.16
2023-04-16T00:40:28.506Z,101439.63
2023-04-16T00:42:36.168Z,101439.63
2023-04-16T00:42:54.924Z,101514.38
2023-04-16T00:45:21.284Z,101512.59
2023-04-16T00:47:36.205Z,101512.59
2023-04-16T00:47:47.660Z,101523.00
2023-04-16T00:50:14.144Z,101500.84
2023-04-16T00:52:36.158Z,101500.84
2023-04-16T00:52:40.781Z,101519.56
2023-04-16T00:55:07.876Z,101532.53
2023-04-16T00:57:34.268Z,101523.91
2023-04-16T00:57:36.163Z,101523.91
2023-04-16T01:00:00.686Z,101523.19
2023-04-16T01:02:27.305Z,101523.91
2023-04-16T01:02:36.253Z,101523.91
2023-04-16T01:04:54.959Z,101521.34
2023-04-16T01:07:21.418Z,101536.19
2023-04-16T01:07:36.188Z,101536.19
2023-04-16T01:09:47.756Z,101521.53
2023-04-16T01:12:14.137Z,101515.53
2023-04-16T01:12:36.152Z,101515.53
2023-04-16T01:14:40.492Z,101484.69
2023-04-16T01:17:06.883Z,101536.13
2023-04-16T01:17:36.170Z,101536.13
2023-04-16T01:19:36.180Z,101473.75
2023-04-16T01:22:03.991Z,101428.22
2023-04-16T01:22:36.160Z,101428.22
2023-04-16T01:24:30.686Z,101533.69
2023-04-16T01:27:00.951Z,101550.97
2023-04-16T01:27:36.157Z,101550.97
2023-04-16T01:29:27.483Z,101541.41
2023-04-16T01:31:54.388Z,101545.72
2023-04-16T01:32:36.242Z,101545.72
2023-04-16T01:34:20.869Z,101559.59
2023-04-16T01:36:47.195Z,101499.38
2023-04-16T01:37:36.167Z,101499.38
2023-04-16T01:39:15.657Z,101551.78
2023-04-16T01:41:42.655Z,101527.00
2023-04-16T01:42:36.204Z,101527.00
2023-04-16T01:44:09.108Z,101564.13
2023-04-16T01:46:36.033Z,101501.19
2023-04-16T01:47:36.214Z,101501.19
2023-04-16T01:49:04.122Z,101482.28
2023-04-16T01:51:31.037Z,101366.72
2023-04-16T01:52:36.211Z,101366.72
2023-04-16T01:53:58.204Z,101490.22
2023-04-16T01:56:25.159Z,101560.56
2023-04-16T01:57:36.165Z,101560.56
2023-04-16T01:58:51.470Z,101557.16
2023-04-16T02:01:18.043Z,101552.75
2023-04-16T02:02:36.307Z,101552.75
2023-04-16T02:03:44.843Z,101518.34
2023-04-16T02:06:11.463Z,101488.38
2023-04-16T02:07:36.177Z,101488.38
2023-04-16T02:08:37.905Z,101550.91
2023-04-16T02:11:04.371Z,101552.63
2023-04-16T02:12:36.158Z,101552.63
2023-04-16T02:13:30.739Z,101557.81
2023-04-16T02:15:57.217Z,101563.81
2023-04-16T02:17:36.228Z,101563.81
2023-04-16T02:18:23.718Z,101549.94
2023-04-16T02:20:50.179Z,101553.53
2023-04-16T02:22:36.169Z,101553.53
2023-04-16T02:23:17.237Z,101545.72
2023-04-16T02:25:46.881Z,101549.97
2023-04-16T02:27:36.171Z,101549.97
2023-04-16T02:28:17.574Z,101534.50
2023-04-16T02:30:44.341Z,101551.69
2023-04-16T02:32:36.200Z,101551.69
2023-04-16T02:33:12.335Z,101555.22
2023-04-16T02:35:40.054Z,101522.69
2023-04-16T02:37:36.277Z,101522.69
2023-04-16T02:38:07.944Z,101556.16
2023-04-16T02:40:34.424Z,101560.53
2023-04-16T02:42:36.239Z,101560.53
2023-04-16T02:43:00.869Z,101552.75
2023-04-16T02:45:27.459Z,101452.34
2023-04-16T02:47:36.232Z,101452.34
2023-04-16T02:47:53.956Z,101431.91
2023-04-16T02:50:20.377Z,101538.16
2023-04-16T02:52:36.198Z,101538.16
2023-04-16T02:52:46.876Z,101556.94
2023-04-16T02:55:13.286Z,101544.91
2023-04-16T02:57:36.181Z,101544.91
2023-04-16T02:57:39.674Z,101538.34
2023-04-16T03:00:06.765Z,101553.53
2023-04-16T03:02:33.324Z,101559.56
2023-04-16T03:02:36.284Z,101559.56
2023-04-16T03:04:59.781Z,101560.53
2023-04-16T03:07:26.126Z,101558.78
2023-04-16T03:07:36.213Z,101558.78
2023-04-16T03:09:54.942Z,101563.13
2023-04-16T03:12:21.392Z,101469.78
2023-04-16T03:12:36.187Z,101469.78
2023-04-16T03:14:47.794Z,101573.63
2023-04-16T03:17:14.290Z,101553.00
2023-04-16T03:17:36.287Z,101553.00
2023-04-16T03:19:40.754Z,101526.53
2023-04-16T03:22:07.157Z,101572.63
2023-04-16T03:22:36.230Z,101572.63
2023-04-16T03:24:33.576Z,101573.50
2023-04-16T03:26:59.952Z,101558.13
2023-04-16T03:27:36.210Z,101558.13
2023-04-16T03:29:27.244Z,101572.69
2023-04-16T03:31:53.609Z,101484.22
2023-04-16T03:32:36.243Z,101484.22
2023-04-16T03:34:20.017Z,101575.25
2023-04-16T03:36:46.375Z,101580.50
2023-04-16T03:37:37.372Z,101580.50
2023-04-16T03:39:12.768Z,101157.88
2023-04-16T03:41:39.201Z,101574.41
2023-04-16T03:42:36.200Z,101574.41
2023-04-16T03:44:05.713Z,101577.88
2023-04-16T03:46:32.242Z,101576.13
2023-04-16T03:47:36.286Z,101576.13
2023-04-16T03:48:58.731Z,101580.50
2023-04-16T03:51:25.048Z,101588.28
2023-04-16T03:52:36.220Z,101588.28
2023-04-16T03:53:51.529Z,101401.34
2023-04-16T03:56:17.973Z,101590.94
2023-04-16T03:57:36.200Z,101590.94
2023-04-16T03:58:44.454Z,101582.31
2023-04-16T04:01:10.948Z,101502.44
2023-04-16T04:02:36.364Z,101502.44
2023-04-16T04:03:37.534Z,101581.34
2023-04-16T04:06:08.384Z,101529.00
2023-04-16T04:07:36.223Z,101529.00
2023-04-16T04:08:34.922Z,101194.69
2023-04-16T04:11:01.275Z,101580.50
2023-04-16T04:12:36.220Z,101580.50
2023-04-16T04:13:27.682Z,101585.72
2023-04-16T04:15:54.118Z,101582.25
2023-04-16T04:17:36.356Z,101582.25
2023-04-16T04:18:20.688Z,101550.56
2023-04-16T04:20:47.004Z,101586.50
2023-04-16T04:22:36.199Z,101586.50
2023-04-16T04:23:15.798Z,101563.38
2023-04-16T04:25:42.232Z,101586.44
2023-04-16T04:27:36.252Z,101586.44
2023-04-16T04:28:08.636Z,101589.97
2023-04-16T04:30:35.969Z,101590.88
2023-04-16T04:32:36.298Z,101590.88
2023-04-16T04:33:02.507Z,101541.00
2023-04-16T04:35:29.140Z,101593.38
2023-04-16T04:37:36.300Z,101593.38
2023-04-16T04:37:55.662Z,101600.44
2023-04-16T04:40:22.111Z,101603.00
2023-04-16T04:42:36.213Z,101603.00
2023-04-16T04:42:48.422Z,101531.94
2023-04-16T04:45:14.881Z,101527.66
2023-04-16T04:47:36.257Z,101527.66
2023-04-16T04:47:41.237Z,101591.06
2023-04-16T04:50:08.202Z,101617.78
2023-04-16T04:52:34.655Z,101603.81
2023-04-16T04:52:36.246Z,101603.81
2023-04-16T04:55:01.274Z,101609.88
2023-04-16T04:57:27.598Z,101605.53
2023-04-16T04:57:36.227Z,101605.53
2023-04-16T04:59:53.959Z,101608.16
2023-04-16T05:02:22.847Z,101603.81
2023-04-16T05:02:36.345Z,101603.81
2023-04-16T05:04:49.398Z,101609.84
2023-04-16T05:07:16.276Z,101523.34
2023-04-16T05:07:36.243Z,101523.34
2023-04-16T05:09:42.670Z,101382.59
2023-04-16T05:12:09.078Z,101613.28
2023-04-16T05:12:36.228Z,101613.28
2023-04-16T05:14:36.147Z,101621.97
2023-04-16T05:17:02.593Z,101628.88
2023-04-16T05:17:36.255Z,101628.88
2023-04-16T05:19:29.066Z,101566.88
2023-04-16T05:21:55.561Z,101631.50
2023-04-16T05:22:36.256Z,101631.50
2023-04-16T05:24:22.457Z,101569.69
2023-04-16T05:26:48.792Z,101616.00
2023-04-16T05:27:36.228Z,101616.00
2023-04-16T05:29:15.313Z,101626.34
2023-04-16T05:31:41.743Z,101632.41
2023-04-16T05:32:36.291Z,101632.41
2023-04-16T05:34:08.131Z,101521.81
2023-04-16T05:36:34.558Z,101635.75
2023-04-16T05:37:36.309Z,101635.75
2023-04-16T05:39:00.862Z,101638.38
2023-04-16T05:41:27.536Z,101662.59
2023-04-16T05:42:36.244Z,101662.59
2023-04-16T05:43:53.864Z,101580.00
2023-04-16T05:46:20.516Z,101562.91
2023-04-16T05:47:36.276Z,101562.91
2023-04-16T05:48:46.870Z,101616.03
2023-04-16T05:51:13.397Z,101583.72
2023-04-16T05:52:36.224Z,101583.72
2023-04-16T05:53:40.909Z,101463.44
2023-04-16T05:56:08.359Z,101555.16
2023-04-16T05:57:36.232Z,101555.16
2023-04-16T05:58:34.744Z,101657.28
2023-04-16T06:01:01.722Z,101615.38
2023-04-16T06:02:36.564Z,101615.38
2023-04-16T06:03:31.051Z,101661.59
2023-04-16T06:05:57.997Z,101667.75
2023-04-16T06:07:36.263Z,101667.75
2023-04-16T06:08:24.768Z,101659.91
2023-04-16T06:10:51.584Z,101667.66
2023-04-16T06:12:36.222Z,101667.66
2023-04-16T06:13:19.187Z,101669.41
2023-04-16T06:15:45.642Z,101663.28
2023-04-16T06:17:36.300Z,101663.28
2023-04-16T06:18:12.047Z,101641.94
2023-04-16T06:20:38.527Z,101668.47
2023-04-16T06:22:36.272Z,101668.47
2023-04-16T06:23:04.860Z,101671.13
2023-04-16T06:25:31.518Z,101667.75
2023-04-16T06:27:36.468Z,101667.75
2023-04-16T06:27:57.857Z,101599.09
2023-04-16T06:30:24.228Z,101677.16
2023-04-16T06:32:36.402Z,101677.16
2023-04-16T06:32:50.841Z,101677.97
2023-04-16T06:35:20.602Z,101675.47
2023-04-16T06:37:36.364Z,101675.47
2023-04-16T06:37:47.518Z,101689.25
2023-04-16T06:40:14.531Z,101689.34
2023-04-16T06:42:36.265Z,101689.34
2023-04-16T06:42:41.475Z,101680.66
2023-04-16T06:45:12.665Z,101682.09
2023-04-16T06:47:36.386Z,101682.09
2023-04-16T06:47:39.273Z,101685.72
2023-04-16T06:50:06.929Z,101678.84
2023-04-16T06:53:15.770Z,101545.75
2023-04-16T06:53:15.898Z,101545.75
2023-04-16T06:55:42.234Z,101687.31
2023-04-16T06:57:37.479Z,101687.31
2023-04-16T06:58:08.856Z,101696.88
2023-04-16T07:00:35.803Z,101704.69
2023-04-16T07:02:36.429Z,101704.69
2023-04-16T07:03:03.322Z,101697.63
2023-04-16T07:05:37.897Z,101704.50
2023-04-16T07:07:36.300Z,101704.50
2023-04-16T07:08:04.527Z,101686.50
2023-04-16T07:10:31.291Z,101651.84
2023-04-16T07:12:36.287Z,101651.84
2023-04-16T07:12:57.724Z,101702.88
2023-04-16T07:15:24.046Z,101711.31
2023-04-16T07:17:36.295Z,101711.31
2023-04-16T07:17:50.507Z,101709.50
2023-04-16T07:20:16.953Z,101696.66
2023-04-16T07:22:36.263Z,101696.66
2023-04-16T07:22:43.509Z,101708.59
2023-04-16T07:25:09.998Z,101712.94
2023-04-16T07:27:36.353Z,101715.53
2023-04-16T07:27:36.492Z,101715.53
2023-04-16T07:30:02.830Z,101641.56
2023-04-16T07:32:29.316Z,101710.31
2023-04-16T07:32:36.276Z,101710.31
2023-04-16T07:34:56.180Z,101730.34
2023-04-16T07:37:22.762Z,101515.63
2023-04-16T07:37:36.397Z,101515.63
2023-04-16T07:39:49.170Z,101643.31
2023-04-16T07:42:15.597Z,101716.09
2023-04-16T07:42:36.306Z,101716.09
2023-04-16T07:44:41.945Z,101660.09
2023-04-16T07:47:08.357Z,101662.75
2023-04-16T07:47:36.348Z,101662.75
2023-04-16T07:49:34.756Z,101715.66
2023-04-16T07:52:01.763Z,101720.91
2023-04-16T07:52:36.248Z,101720.91
2023-04-16T07:54:29.090Z,101664.56
2023-04-16T07:56:55.876Z,101711.56
2023-04-16T07:57:36.275Z,101711.56
2023-04-16T07:59:24.028Z,101683.97
2023-04-16T08:01:53.011Z,101721.47
2023-04-16T08:02:36.348Z,101721.47
2023-04-16T08:04:24.828Z,101714.75
2023-04-16T08:06:52.075Z,101724.16
2023-04-16T08:07:36.268Z,101724.16
2023-04-16T08:09:20.408Z,101694.91
2023-04-16T08:11:49.019Z,101668.31
2023-04-16T08:12:36.296Z,101668.31
2023-04-16T08:14:16.757Z,101667.72
2023-04-16T08:16:43.222Z,101700.31
2023-04-16T08:17:36.283Z,101700.31
2023-04-16T08:19:09.821Z,101680.56
2023-04-16T08:21:36.383Z,101727.69
2023-04-16T08:22:36.291Z,101727.69
2023-04-16T08:24:02.824Z,101725.16
2023-04-16T08:26:29.238Z,101649.97
2023-04-16T08:27:36.275Z,101649.97
2023-04-16T08:28:55.740Z,101696.41
2023-04-16T08:31:22.404Z,101726.41
2023-04-16T08:32:36.364Z,101726.41
2023-04-16T08:33:48.791Z,101725.63
2023-04-16T08:36:15.162Z,101679.88
2023-04-16T08:37:36.312Z,101679.88
2023-04-16T08:38:41.491Z,101720.09
2023-04-16T08:41:12.008Z,101715.16
2023-04-16T08:42:36.284Z,101715.16
2023-04-16T08:43:42.301Z,101701.84
2023-04-16T08:46:09.090Z,101721.06
2023-04-16T08:47:36.315Z,101721.06
2023-04-16T08:48:36.958Z,101716.56
2023-04-16T08:51:03.439Z,101720.03
2023-04-16T08:52:36.317Z,101720.03
2023-04-16T08:53:37.269Z,101722.19
2023-04-16T08:56:05.396Z,101720.03
2023-04-16T08:57:36.309Z,101720.03
2023-04-16T08:58:34.583Z,101716.19
2023-04-16T09:01:03.473Z,101706.44
2023-04-16T09:02:36.552Z,101706.44
2023-04-16T09:03:34.777Z,101717.63
2023-04-16T09:06:04.366Z,101654.56
2023-04-16T09:07:36.303Z,101654.56
2023-04-16T09:08:32.210Z,101676.78
2023-04-16T09:10:59.532Z,101704.06
2023-04-16T09:12:36.302Z,101704.06
2023-04-16T09:13:26.810Z,101658.59
2023-04-16T09:15:54.382Z,101679.69
2023-04-16T09:17:36.339Z,101679.69
2023-04-16T09:18:21.241Z,101677.13
2023-04-16T09:20:51.053Z,101627.19
2023-04-16T09:22:36.323Z,101627.19
2023-04-16T09:23:17.936Z,101670.81
2023-04-16T09:25:44.352Z,101665.25
2023-04-16T09:27:36.302Z,101665.25
2023-04-16T09:28:11.012Z,101431.38
2023-04-16T09:30:37.613Z,101672.81
2023-04-16T09:32:36.402Z,101672.81
2023-04-16T09:33:22.822Z,101660.72
2023-04-16T09:35:51.548Z,101660.94
2023-04-16T09:37:36.305Z,101660.94
2023-04-16T09:38:19.307Z,101652.38
2023-04-16T09:40:47.324Z,101644.44
2023-04-16T09:42:36.320Z,101644.44
2023-04-16T09:43:15.403Z,101650.03
2023-04-16T09:45:55.205Z,101651.94
2023-04-16T09:47:36.345Z,101651.94
2023-04-16T09:48:32.650Z,101651.38
2023-04-16T09:51:00.723Z,101651.59
2023-04-16T09:52:36.319Z,101651.59
2023-04-16T09:53:31.525Z,101640.84
2023-04-16T09:55:58.556Z,101646.06
2023-04-16T09:57:36.378Z,101646.06
2023-04-16T09:58:25.292Z,101649.53
2023-04-16T10:01:12.072Z,101651.63
2023-04-16T10:02:36.428Z,101651.63
2023-04-16T10:03:40.343Z,101652.13
2023-04-16T10:06:07.563Z,101654.19
2023-04-16T10:07:36.309Z,101654.19
2023-04-16T10:08:33.884Z,101621.88
2023-04-16T10:11:00.929Z,101649.66
2023-04-16T10:12:36.333Z,101649.66
2023-04-16T10:13:28.249Z,101654.88
2023-04-16T10:15:56.987Z,101638.91
2023-04-16T10:17:36.320Z,101638.91
2023-04-16T10:18:23.829Z,101468.75
2023-04-16T10:20:51.159Z,101643.06
2023-04-16T10:22:36.317Z,101643.06
2023-04-16T10:23:19.149Z,101567.72
2023-04-16T10:25:45.956Z,101610.03
2023-04-16T10:27:36.299Z,101610.03
2023-04-16T10:28:13.940Z,101587.34
2023-04-16T10:30:42.263Z,101624.72
2023-04-16T10:32:36.514Z,101624.72
2023-04-16T10:33:09.490Z,101592.44
2023-04-16T10:35:40.415Z,101612.09
2023-04-16T10:37:36.326Z,101612.09
2023-04-16T10:38:27.002Z,101618.41
2023-04-16T10:41:01.991Z,101536.16
2023-04-16T10:42:36.322Z,101536.16
2023-04-16T10:43:30.318Z,101548.22
2023-04-16T10:45:57.335Z,101600.28
2023-04-16T10:47:36.314Z,101600.28
2023-04-16T10:48:26.306Z,101565.44
2023-04-16T10:50:57.697Z,101587.63
2023-04-16T10:52:36.299Z,101587.63
2023-04-16T10:53:26.986Z,101558.63
2023-04-16T10:55:58.224Z,101550.38
2023-04-16T10:57:36.309Z,101550.38
2023-04-16T10:58:29.188Z,101537.56
2023-04-16T11:00:55.609Z,101539.31
2023-04-16T11:02:36.528Z,101539.31
2023-04-16T11:03:22.200Z,101510.63
2023-04-16T11:05:48.649Z,101518.63
2023-04-16T11:07:36.293Z,101518.63
2023-04-16T11:08:16.374Z,101522.00
2023-04-16T11:10:42.794Z,101481.06
2023-04-16T11:12:36.323Z,101481.06
2023-04-16T11:13:12.783Z,101487.94
2023-04-16T11:15:39.174Z,101466.69
2023-04-16T11:17:36.348Z,101466.69
2023-04-16T11:18:06.928Z,101418.25
2023-04-16T11:20:33.512Z,101447.50
2023-04-16T11:22:36.311Z,101447.50
2023-04-16T11:22:59.846Z,101496.66
2023-04-16T11:25:31.500Z,101492.59
2023-04-16T11:27:36.324Z,101492.59
2023-04-16T11:28:01.503Z,101479.28
2023-04-16T11:30:33.985Z,101487.81
2023-04-16T11:32:36.331Z,101487.81
2023-04-16T11:33:12.614Z,101447.16
2023-04-16T11:35:39.824Z,101525.72
2023-04-16T11:37:36.298Z,101525.72
2023-04-16T11:38:07.102Z,101525.41
2023-04-16T11:40:34.440Z,101500.22
2023-04-16T11:42:36.362Z,101500.22
2023-04-16T11:43:15.256Z,101438.81
2023-04-16T11:46:10.005Z,101496.81
2023-04-16T11:47:36.357Z,101496.81
2023-04-16T11:48:55.876Z,101533.19
2023-04-16T11:51:23.249Z,101466.41
2023-04-16T11:52:36.297Z,101466.41
2023-04-16T11:53:54.019Z,101457.34
2023-04-16T11:56:32.780Z,101428.94
2023-04-16T11:57:36.291Z,101428.94
2023-04-16T11:59:13.140Z,101418.28
2023-04-16T12:01:41.596Z,101433.25
2023-04-16T12:02:36.478Z,101433.25
2023-04-16T12:04:09.006Z,101401.19
2023-04-16T12:06:35.567Z,101474.47
2023-04-16T12:07:36.312Z,101474.47
2023-04-16T12:09:22.734Z,101476.41
2023-04-16T12:11:49.218Z,101477.19
2023-04-16T12:12:36.359Z,101477.19
2023-04-16T12:14:15.701Z,101465.50
2023-04-16T12:16:42.339Z,101378.44
2023-04-16T12:17:36.365Z,101378.44
2023-04-16T12:19:12.224Z,101420.72
2023-04-16T12:21:44.554Z,101478.44
2023-04-16T12:22:37.289Z,101478.44
2023-04-16T12:24:14.199Z,101483.94
2023-04-16T12:26:46.479Z,101325.97
2023-04-16T12:27:36.331Z,101325.97
2023-04-16T12:29:21.900Z,101472.06
2023-04-16T12:31:49.741Z,101418.66
2023-04-16T12:32:36.363Z,101418.66
2023-04-16T12:34:17.255Z,101377.41
2023-04-16T12:36:45.812Z,101337.28
2023-04-16T12:37:36.313Z,101337.28
2023-04-16T12:39:15.838Z,101330.94
2023-04-16T12:41:43.676Z,101165.09
2023-04-16T12:42:36.330Z,101165.09
2023-04-16T12:44:12.697Z,101354.28
2023-04-16T12:46:40.385Z,101369.06
2023-04-16T12:47:36.394Z,101369.06
2023-04-16T12:49:07.883Z,101395.56
2023-04-16T12:51:35.702Z,101370.50
2023-04-16T12:52:36.333Z,101370.50
2023-04-16T12:54:03.773Z,101399.03
2023-04-16T12:56:30.891Z,101372.00
2023-04-16T12:57:36.303Z,101372.00
2023-04-16T12:58:57.808Z,101283.81
2023-04-16T13:01:24.256Z,101349.34
2023-04-16T13:02:36.457Z,101349.34
2023-04-16T13:03:51.002Z,101331.28
2023-04-16T13:06:17.930Z,101288.06
2023-04-16T13:07:36.342Z,101288.06
2023-04-16T13:08:45.078Z,101296.59
2023-04-16T13:11:11.781Z,101301.25
2023-04-16T13:12:36.316Z,101301.25
2023-04-16T13:13:38.143Z,101292.00
2023-04-16T13:16:06.681Z,101294.38
2023-04-16T13:17:36.363Z,101294.38
2023-04-16T13:18:33.302Z,101302.28
2023-04-16T13:20:59.890Z,101284.50
2023-04-16T13:22:36.334Z,101284.50
2023-04-16T13:23:26.979Z,101274.84
2023-04-16T13:25:53.450Z,101096.41
2023-04-16T13:27:36.335Z,101096.41
2023-04-16T13:28:19.885Z,101340.13
2023-04-16T13:30:47.051Z,101235.56
2023-04-16T13:32:36.436Z,101235.56
2023-04-16T13:33:13.478Z,101321.53
2023-04-16T13:35:39.858Z,101327.09
2023-04-16T13:37:36.328Z,101327.09
2023-04-16T13:38:06.235Z,101315.63
2023-04-16T13:40:32.618Z,101283.59
2023-04-16T13:42:36.358Z,101283.59
2023-04-16T13:42:59.013Z,101299.38
2023-04-16T13:45:26.830Z,101323.91
2023-04-16T13:47:36.360Z,101323.91
2023-04-16T13:47:54.658Z,101299.38
2023-04-16T13:50:21.034Z,101340.56
2023-04-16T13:52:36.363Z,101340.56
2023-04-16T13:52:47.413Z,101285.00
2023-04-16T13:55:14.056Z,101265.41
2023-04-16T13:57:36.367Z,101265.41
2023-04-16T13:57:41.273Z,101222.09
2023-04-16T14:00:11.220Z,101320.22
2023-04-16T14:02:36.510Z,101320.22
2023-04-16T14:02:39.656Z,101331.63
2023-04-16T14:05:06.905Z,101323.63
2023-04-16T14:07:33.284Z,101324.50
2023-04-16T14:07:36.322Z,101324.50
2023-04-16T14:09:59.579Z,101310.53
2023-04-16T14:12:26.904Z,101345.69
2023-04-16T14:12:36.347Z,101345.69
2023-04-16T14:14:53.410Z,101321.94
2023-04-16T14:17:19.807Z,101254.56
2023-04-16T14:17:36.412Z,101254.56
2023-04-16T14:19:46.226Z,101292.16
2023-04-16T14:22:12.698Z,101233.31
2023-04-16T14:22:36.337Z,101233.31
2023-04-16T14:24:39.090Z,101298.03
2023-04-16T14:27:05.500Z,101290.13
2023-04-16T14:27:36.381Z,101290.13
2023-04-16T14:29:31.831Z,101274.84
2023-04-16T14:31:58.319Z,101256.69
2023-04-16T14:32:37.413Z,101256.69
2023-04-16T14:34:24.705Z,101311.03
2023-04-16T14:36:51.906Z,101289.25
2023-04-16T14:37:36.340Z,101289.25
2023-04-16T14:39:18.450Z,101037.28
2023-04-16T14:41:44.783Z,101225.31
2023-04-16T14:42:36.369Z,101225.31
2023-04-16T14:44:11.106Z,101277.72
2023-04-16T14:46:38.492Z,101257.69
2023-04-16T14:47:36.374Z,101257.69
2023-04-16T14:49:07.674Z,101220.38
2023-04-16T14:51:35.194Z,101195.81
2023-04-16T14:52:36.364Z,101195.81
2023-04-16T14:54:01.544Z,101266.31
2023-04-16T14:56:27.996Z,101278.81
2023-04-16T14:57:36.356Z,101278.81
2023-04-16T14:58:54.415Z,101326.13
2023-04-16T15:01:20.900Z,101235.91
2023-04-16T15:02:36.470Z,101235.91
2023-04-16T15:03:47.487Z,101288.69
2023-04-16T15:06:14.755Z,101228.38
2023-04-16T15:07:36.363Z,101228.38
2023-04-16T15:08:41.501Z,101263.69
2023-04-16T15:11:08.031Z,101286.38
2023-04-16T15:12:36.360Z,101286.38
2023-04-16T15:13:34.404Z,101193.88
2023-04-16T15:16:04.724Z,101265.75
2023-04-16T15:17:36.375Z,101265.75
2023-04-16T15:18:32.285Z,101293.59
2023-04-16T15:20:58.922Z,101335.41
2023-04-16T15:22:36.379Z,101335.41
2023-04-16T15:23:25.250Z,101348.53
2023-04-16T15:25:51.580Z,101375.91
2023-04-16T15:27:36.354Z,101375.91
2023-04-16T15:28:18.024Z,101330.47
2023-04-16T15:30:44.897Z,101278.91
2023-04-16T15:32:36.464Z,101278.91
2023-04-16T15:33:13.787Z,101317.78
2023-04-16T15:35:41.257Z,101336.09
2023-04-16T15:37:36.375Z,101336.09
2023-04-16T15:38:08.324Z,101321.28
2023-04-16T15:40:36.298Z,101372.28
2023-04-16T15:42:36.364Z,101372.28
2023-04-16T15:43:03.253Z,101383.16
2023-04-16T15:45:29.633Z,101375.69
2023-04-16T15:47:36.549Z,101375.69
2023-04-16T15:47:56.070Z,101436.03
2023-04-16T15:50:22.663Z,101464.81
2023-04-16T15:52:36.401Z,101464.81
2023-04-16T15:52:49.144Z,101405.81
2023-04-16T15:55:17.534Z,101449.03
2023-04-16T15:57:36.380Z,101449.03
2023-04-16T15:57:44.081Z,101455.84
2023-04-16T16:00:16.991Z,101445.88
2023-04-16T16:02:36.682Z,101445.88
2023-04-16T16:02:45.141Z,101392.31
2023-04-16T16:05:13.706Z,101430.59
2023-04-16T16:07:36.407Z,101430.59
2023-04-16T16:07:40.998Z,101428.66
2023-04-16T16:10:08.547Z,101465.38
2023-04-16T16:12:35.125Z,101491.97
2023-04-16T16:12:36.400Z,101491.97
2023-04-16T16:15:02.212Z,101430.94
2023-04-16T16:17:29.112Z,101484.47
2023-04-16T16:17:36.389Z,101484.47
2023-04-16T16:19:57.568Z,101487.63
2023-04-16T16:22:24.524Z,101486.63
2023-04-16T16:22:36.369Z,101486.63
2023-04-16T16:24:51.484Z,101492.47
2023-04-16T16:27:18.763Z,101428.09
2023-04-16T16:27:36.592Z,101428.09
2023-04-16T16:29:45.493Z,101492.53
2023-04-16T16:32:12.111Z,101279.22
2023-04-16T16:32:36.442Z,101279.22
2023-04-16T16:34:38.918Z,101479.34
2023-04-16T16:37:06.297Z,101498.63
2023-04-16T16:37:36.431Z,101498.63
2023-04-16T16:39:33.099Z,101483.16
2023-04-16T16:41:59.959Z,101616.91
2023-04-16T16:42:36.493Z,101616.91
2023-04-16T16:44:27.043Z,101637.72
2023-04-16T16:46:53.966Z,101709.88
2023-04-16T16:47:36.420Z,101709.88
2023-04-16T16:49:20.463Z,101746.50
2023-04-16T16:51:48.055Z,101689.75
2023-04-16T16:52:36.397Z,101689.75
2023-04-16T16:54:14.606Z,101766.69
2023-04-16T16:56:41.322Z,101707.13
2023-04-16T16:57:36.365Z,101707.13
2023-04-16T16:59:09.020Z,101781.63
2023-04-16T17:01:35.877Z,101770.34
2023-04-16T17:02:36.554Z,101770.34
2023-04-16T17:04:02.638Z,101668.59
2023-04-16T17:06:29.221Z,101816.97
2023-04-16T17:07:36.380Z,101816.97
2023-04-16T17:08:55.808Z,101726.25
2023-04-16T17:11:22.214Z,101811.25
2023-04-16T17:12:36.401Z,101811.25
2023-04-16T17:13:48.809Z,101835.38
2023-04-16T17:16:17.530Z,101826.09
2023-04-16T17:17:36.472Z,101826.09
2023-04-16T17:18:43.891Z,101832.31
2023-04-16T17:21:10.294Z,101831.75
2023-04-16T17:22:36.408Z,101831.75
2023-04-16T17:23:36.690Z,101669.88
2023-04-16T17:26:03.306Z,101815.56
2023-04-16T17:27:36.407Z,101815.56
2023-04-16T17:28:29.933Z,101815.50
2023-04-16T17:30:56.928Z,101820.91
2023-04-16T17:32:36.420Z,101820.91
2023-04-16T17:33:23.259Z,101821.09
2023-04-16T17:35:49.614Z,101822.19
2023-04-16T17:37:36.487Z,101822.19
2023-04-16T17:38:15.982Z,101738.31
2023-04-16T17:40:42.421Z,101820.91
2023-04-16T17:42:36.394Z,101820.91
2023-04-16T17:43:08.787Z,101821.53
2023-04-16T17:45:35.209Z,101820.66
2023-04-16T17:47:36.437Z,101820.66
2023-04-16T17:48:01.805Z,101827.72
2023-04-16T17:50:28.132Z,101823.53
2023-04-16T17:52:36.423Z,101823.53
2023-04-16T17:52:54.449Z,101815.34
2023-04-16T17:55:20.952Z,101830.03
2023-04-16T17:57:36.387Z,101830.03
2023-04-16T17:57:47.356Z,101818.69
2023-04-16T18:00:14.379Z,101828.09
2023-04-16T18:02:36.530Z,101828.09
2023-04-16T18:02:42.126Z,101834.25
2023-04-16T18:05:09.202Z,101792.38
2023-04-16T18:07:36.349Z,101758.88
2023-04-16T18:07:36.543Z,101758.88
2023-04-16T18:10:02.913Z,101827.63
2023-04-16T18:12:29.260Z,101829.44
2023-04-16T18:12:36.421Z,101829.44
2023-04-16T18:14:55.651Z,101783.41
2023-04-16T18:17:22.712Z,101837.41
2023-04-16T18:17:36.436Z,101837.41
2023-04-16T18:19:49.201Z,101834.09
2023-04-16T18:22:15.798Z,101842.78
2023-04-16T18:22:36.383Z,101842.78
2023-04-16T18:24:42.188Z,101803.38
2023-04-16T18:27:08.572Z,101848.13
2023-04-16T18:27:36.390Z,101848.13
2023-04-16T18:29:35.048Z,101793.56
2023-04-16T18:32:04.409Z,101845.75
2023-04-16T18:32:37.408Z,101845.75
2023-04-16T18:34:31.731Z,101850.28
2023-04-16T18:36:58.177Z,101793.03
2023-04-16T18:37:36.384Z,101793.03
2023-04-16T18:39:24.624Z,101860.09
2023-04-16T18:41:51.048Z,101864.50
2023-04-16T18:42:36.387Z,101864.50
2023-04-16T18:44:19.597Z,101863.66
2023-04-16T18:46:46.353Z,101795.28
2023-04-16T18:47:36.441Z,101795.28
2023-04-16T18:49:12.954Z,101856.28